sensor_id;sensor_type;location;lat;lon;timestamp;P1;durP1;ratioP1;P2;durP2;ratioP2
18689;SDS011;9782;52.930;15.562;2023-07-31T00:02:03;7.57;;;3.78;;
18689;SDS011;9782;52.930;15.562;2023-07-31T00:04:30;5.85;;;2.38;;
18689;SDS011;9782;52.930;15.562;2023-07-31T00:06:57;3.35;;;2.13;;
18689;SDS011;9782;52.930;15.562;2023-07-31T00:09:24;5.80;;;2.38;;
18689;SDS011;9782;52.930;15.562;2023-07-31T00:11:51;4.40;;;2.42;;
18689;SDS011;9782;52.930;15.562;2023-07-31T00:14:18;7.82;;;3.10;;
18689;SDS011;9782;52.930;15.562;2023-07-31T00:16:46;5.45;;;2.55;;
18689;SDS011;9782;52.930;15.562;2023-07-31T00:19:13;5.00;;;2.60;;
18689;SDS011;9782;52.930;15.562;2023-07-31T00:21:41;4.40;;;2.58;;
18689;SDS011;9782;52.930;15.562;2023-07-31T00:24:07;8.13;;;2.50;;
18689;SDS011;9782;52.930;15.562;2023-07-31T00:26:34;5.57;;;2.50;;
18689;SDS011;9782;52.930;15.562;2023-07-31T00:29:02;5.50;;;2.70;;
18689;SDS011;9782;52.930;15.562;2023-07-31T00:31:29;5.67;;;2.47;;
18689;SDS011;9782;52.930;15.562;2023-07-31T00:33:59;4.25;;;2.60;;
18689;SDS011;9782;52.930;15.562;2023-07-31T00:36:26;4.60;;;2.50;;
18689;SDS011;9782;52.930;15.562;2023-07-31T00:38:55;5.07;;;2.40;;
18689;SDS011;9782;52.930;15.562;2023-07-31T00:49:09;6.82;;;2.75;;
18689;SDS011;9782;52.930;15.562;2023-07-31T00:51:37;5.33;;;2.63;;
18689;SDS011;9782;52.930;15.562;2023-07-31T00:54:04;6.03;;;3.13;;
18689;SDS011;9782;52.930;15.562;2023-07-31T00:56:35;6.77;;;2.83;;
18689;SDS011;9782;52.930;15.562;2023-07-31T00:59:05;10.10;;;3.30;;
18689;SDS011;9782;52.930;15.562;2023-07-31T01:01:32;7.20;;;2.73;;
18689;SDS011;9782;52.930;15.562;2023-07-31T01:03:59;7.53;;;2.93;;
18689;SDS011;9782;52.930;15.562;2023-07-31T01:06:33;6.07;;;2.70;;
18689;SDS011;9782;52.930;15.562;2023-07-31T01:09:06;5.10;;;2.80;;
18689;SDS011;9782;52.930;15.562;2023-07-31T01:45:20;7.20;;;3.50;;
18689;SDS011;9782;52.930;15.562;2023-07-31T01:47:47;4.97;;;3.20;;
18689;SDS011;9782;52.930;15.562;2023-07-31T01:50:14;5.60;;;3.40;;
18689;SDS011;9782;52.930;15.562;2023-07-31T01:52:41;7.50;;;3.23;;
18689;SDS011;9782;52.930;15.562;2023-07-31T01:55:09;7.27;;;3.10;;
18689;SDS011;9782;52.930;15.562;2023-07-31T01:57:37;5.67;;;3.10;;
18689;SDS011;9782;52.930;15.562;2023-07-31T02:00:06;6.27;;;3.53;;
18689;SDS011;9782;52.930;15.562;2023-07-31T02:15:31;5.10;;;3.05;;
18689;SDS011;9782;52.930;15.562;2023-07-31T02:17:59;5.68;;;3.15;;
18689;SDS011;9782;52.930;15.562;2023-07-31T02:20:26;4.22;;;3.05;;
18689;SDS011;9782;52.930;15.562;2023-07-31T02:22:55;6.18;;;2.58;;
18689;SDS011;9782;52.930;15.562;2023-07-31T02:25:23;4.80;;;3.20;;
18689;SDS011;9782;52.930;15.562;2023-07-31T02:27:51;5.07;;;3.30;;
18689;SDS011;9782;52.930;15.562;2023-07-31T02:30:18;6.03;;;3.10;;
18689;SDS011;9782;52.930;15.562;2023-07-31T02:32:47;10.00;;;3.53;;
18689;SDS011;9782;52.930;15.562;2023-07-31T02:35:14;4.40;;;3.20;;
18689;SDS011;9782;52.930;15.562;2023-07-31T02:37:43;5.47;;;3.00;;
18689;SDS011;9782;52.930;15.562;2023-07-31T02:40:12;7.60;;;3.10;;
18689;SDS011;9782;52.930;15.562;2023-07-31T02:42:39;5.03;;;2.70;;
18689;SDS011;9782;52.930;15.562;2023-07-31T02:45:07;7.37;;;3.30;;
18689;SDS011;9782;52.930;15.562;2023-07-31T02:47:34;4.47;;;2.83;;
18689;SDS011;9782;52.930;15.562;2023-07-31T02:50:03;6.93;;;3.17;;
18689;SDS011;9782;52.930;15.562;2023-07-31T02:52:30;5.50;;;3.20;;
18689;SDS011;9782;52.930;15.562;2023-07-31T02:54:57;6.10;;;3.05;;
18689;SDS011;9782;52.930;15.562;2023-07-31T02:57:24;4.90;;;3.07;;
18689;SDS011;9782;52.930;15.562;2023-07-31T02:59:51;4.90;;;3.23;;
18689;SDS011;9782;52.930;15.562;2023-07-31T03:02:22;8.27;;;3.07;;
18689;SDS011;9782;52.930;15.562;2023-07-31T03:04:49;7.97;;;2.93;;
18689;SDS011;9782;52.930;15.562;2023-07-31T03:07:17;4.40;;;3.13;;
18689;SDS011;9782;52.930;15.562;2023-07-31T03:09:44;5.60;;;3.37;;
18689;SDS011;9782;52.930;15.562;2023-07-31T03:25:58;8.23;;;3.28;;
18689;SDS011;9782;52.930;15.562;2023-07-31T03:41:24;9.43;;;3.90;;
18689;SDS011;9782;52.930;15.562;2023-07-31T03:43:53;8.80;;;4.05;;
18689;SDS011;9782;52.930;15.562;2023-07-31T03:46:21;7.85;;;4.47;;
18689;SDS011;9782;52.930;15.562;2023-07-31T03:48:51;8.25;;;4.60;;
18689;SDS011;9782;52.930;15.562;2023-07-31T03:51:18;5.60;;;4.22;;
18689;SDS011;9782;52.930;15.562;2023-07-31T04:09:19;5.45;;;4.47;;
18689;SDS011;9782;52.930;15.562;2023-07-31T04:11:48;6.57;;;4.40;;
18689;SDS011;9782;52.930;15.562;2023-07-31T04:14:15;12.05;;;4.90;;
18689;SDS011;9782;52.930;15.562;2023-07-31T04:19:18;9.77;;;4.88;;
18689;SDS011;9782;52.930;15.562;2023-07-31T04:21:45;9.40;;;4.43;;
18689;SDS011;9782;52.930;15.562;2023-07-31T04:24:12;9.35;;;4.30;;
18689;SDS011;9782;52.930;15.562;2023-07-31T04:26:41;7.82;;;4.40;;
18689;SDS011;9782;52.930;15.562;2023-07-31T04:29:08;6.43;;;4.35;;
18689;SDS011;9782;52.930;15.562;2023-07-31T04:31:35;6.45;;;4.35;;
18689;SDS011;9782;52.930;15.562;2023-07-31T04:34:03;7.00;;;4.25;;
18689;SDS011;9782;52.930;15.562;2023-07-31T04:36:30;5.75;;;4.20;;
18689;SDS011;9782;52.930;15.562;2023-07-31T04:38:57;7.28;;;4.13;;
18689;SDS011;9782;52.930;15.562;2023-07-31T04:41:24;7.75;;;4.30;;
18689;SDS011;9782;52.930;15.562;2023-07-31T04:43:52;9.90;;;4.68;;
18689;SDS011;9782;52.930;15.562;2023-07-31T04:46:19;7.43;;;4.22;;
18689;SDS011;9782;52.930;15.562;2023-07-31T04:48:46;11.85;;;4.07;;
18689;SDS011;9782;52.930;15.562;2023-07-31T04:51:12;5.10;;;3.90;;
18689;SDS011;9782;52.930;15.562;2023-07-31T04:53:39;8.55;;;3.90;;
18689;SDS011;9782;52.930;15.562;2023-07-31T04:56:06;7.00;;;3.80;;
18689;SDS011;9782;52.930;15.562;2023-07-31T04:58:33;8.50;;;3.90;;
18689;SDS011;9782;52.930;15.562;2023-07-31T05:01:01;4.80;;;3.63;;
18689;SDS011;9782;52.930;15.562;2023-07-31T05:03:28;6.85;;;3.88;;
18689;SDS011;9782;52.930;15.562;2023-07-31T05:05:55;6.43;;;4.03;;
18689;SDS011;9782;52.930;15.562;2023-07-31T05:08:22;9.32;;;4.43;;
18689;SDS011;9782;52.930;15.562;2023-07-31T05:10:49;5.22;;;4.63;;
18689;SDS011;9782;52.930;15.562;2023-07-31T05:13:19;9.75;;;5.00;;
18689;SDS011;9782;52.930;15.562;2023-07-31T05:15:46;9.07;;;5.18;;
18689;SDS011;9782;52.930;15.562;2023-07-31T05:18:15;6.07;;;4.28;;
18689;SDS011;9782;52.930;15.562;2023-07-31T05:20:43;8.80;;;4.63;;
18689;SDS011;9782;52.930;15.562;2023-07-31T05:23:10;5.85;;;4.13;;
18689;SDS011;9782;52.930;15.562;2023-07-31T05:25:37;6.68;;;4.20;;
18689;SDS011;9782;52.930;15.562;2023-07-31T05:28:04;7.45;;;4.13;;
18689;SDS011;9782;52.930;15.562;2023-07-31T05:30:31;9.05;;;4.10;;
18689;SDS011;9782;52.930;15.562;2023-07-31T05:32:58;6.10;;;4.43;;
18689;SDS011;9782;52.930;15.562;2023-07-31T05:35:26;7.57;;;4.45;;
18689;SDS011;9782;52.930;15.562;2023-07-31T05:37:55;5.70;;;3.92;;
18689;SDS011;9782;52.930;15.562;2023-07-31T05:40:25;5.57;;;3.83;;
18689;SDS011;9782;52.930;15.562;2023-07-31T05:42:52;6.15;;;4.20;;
18689;SDS011;9782;52.930;15.562;2023-07-31T05:45:19;7.95;;;4.90;;
18689;SDS011;9782;52.930;15.562;2023-07-31T05:47:47;9.05;;;5.28;;
18689;SDS011;9782;52.930;15.562;2023-07-31T05:50:16;7.85;;;5.03;;
18689;SDS011;9782;52.930;15.562;2023-07-31T05:52:45;9.27;;;6.18;;
18689;SDS011;9782;52.930;15.562;2023-07-31T05:55:14;8.05;;;3.38;;
18689;SDS011;9782;52.930;15.562;2023-07-31T05:57:41;5.00;;;3.35;;
18689;SDS011;9782;52.930;15.562;2023-07-31T06:00:11;5.65;;;3.05;;
18689;SDS011;9782;52.930;15.562;2023-07-31T06:02:39;4.82;;;2.85;;
18689;SDS011;9782;52.930;15.562;2023-07-31T06:05:06;4.22;;;3.10;;
18689;SDS011;9782;52.930;15.562;2023-07-31T06:07:38;6.60;;;2.65;;
18689;SDS011;9782;52.930;15.562;2023-07-31T06:10:08;5.22;;;2.80;;
18689;SDS011;9782;52.930;15.562;2023-07-31T06:12:36;5.07;;;2.80;;
18689;SDS011;9782;52.930;15.562;2023-07-31T06:15:03;4.13;;;2.58;;
18689;SDS011;9782;52.930;15.562;2023-07-31T06:17:31;4.07;;;2.70;;
18689;SDS011;9782;52.930;15.562;2023-07-31T06:20:00;8.18;;;2.63;;
18689;SDS011;9782;52.930;15.562;2023-07-31T06:22:28;5.55;;;2.80;;
18689;SDS011;9782;52.930;15.562;2023-07-31T06:24:57;4.15;;;3.13;;
18689;SDS011;9782;52.930;15.562;2023-07-31T06:27:26;6.60;;;4.20;;
18689;SDS011;9782;52.930;15.562;2023-07-31T06:29:53;5.18;;;3.42;;
18689;SDS011;9782;52.930;15.562;2023-07-31T06:32:20;6.22;;;3.50;;
18689;SDS011;9782;52.930;15.562;2023-07-31T06:34:47;5.22;;;3.22;;
18689;SDS011;9782;52.930;15.562;2023-07-31T06:37:14;5.47;;;3.50;;
18689;SDS011;9782;52.930;15.562;2023-07-31T06:39:41;5.72;;;3.97;;
18689;SDS011;9782;52.930;15.562;2023-07-31T06:42:08;5.95;;;3.92;;
18689;SDS011;9782;52.930;15.562;2023-07-31T06:44:36;6.18;;;4.03;;
18689;SDS011;9782;52.930;15.562;2023-07-31T06:47:06;6.63;;;4.15;;
18689;SDS011;9782;52.930;15.562;2023-07-31T06:49:33;5.65;;;3.72;;
18689;SDS011;9782;52.930;15.562;2023-07-31T06:52:00;6.55;;;4.20;;
18689;SDS011;9782;52.930;15.562;2023-07-31T06:54:28;5.22;;;3.63;;
18689;SDS011;9782;52.930;15.562;2023-07-31T06:56:55;8.88;;;3.80;;
18689;SDS011;9782;52.930;15.562;2023-07-31T06:59:22;6.60;;;4.00;;
18689;SDS011;9782;52.930;15.562;2023-07-31T07:01:50;12.43;;;4.60;;
18689;SDS011;9782;52.930;15.562;2023-07-31T07:04:17;6.15;;;3.88;;
18689;SDS011;9782;52.930;15.562;2023-07-31T07:06:44;6.28;;;3.90;;
18689;SDS011;9782;52.930;15.562;2023-07-31T07:09:11;7.68;;;4.10;;
18689;SDS011;9782;52.930;15.562;2023-07-31T07:11:37;5.20;;;3.97;;
18689;SDS011;9782;52.930;15.562;2023-07-31T07:14:04;7.80;;;4.00;;
18689;SDS011;9782;52.930;15.562;2023-07-31T07:16:31;6.95;;;4.63;;
18689;SDS011;9782;52.930;15.562;2023-07-31T07:18:59;5.88;;;4.28;;
18689;SDS011;9782;52.930;15.562;2023-07-31T07:21:26;5.40;;;4.20;;
18689;SDS011;9782;52.930;15.562;2023-07-31T07:23:53;6.82;;;4.13;;
18689;SDS011;9782;52.930;15.562;2023-07-31T07:26:20;5.45;;;3.92;;
18689;SDS011;9782;52.930;15.562;2023-07-31T07:28:47;5.75;;;4.00;;
18689;SDS011;9782;52.930;15.562;2023-07-31T07:31:14;6.97;;;4.38;;
18689;SDS011;9782;52.930;15.562;2023-07-31T07:33:41;6.00;;;3.60;;
18689;SDS011;9782;52.930;15.562;2023-07-31T07:36:09;6.10;;;4.07;;
18689;SDS011;9782;52.930;15.562;2023-07-31T07:38:37;5.75;;;3.80;;
18689;SDS011;9782;52.930;15.562;2023-07-31T07:41:04;7.65;;;3.67;;
18689;SDS011;9782;52.930;15.562;2023-07-31T07:43:31;4.95;;;3.70;;
18689;SDS011;9782;52.930;15.562;2023-07-31T07:45:58;8.70;;;3.50;;
18689;SDS011;9782;52.930;15.562;2023-07-31T07:48:25;5.90;;;3.60;;
18689;SDS011;9782;52.930;15.562;2023-07-31T07:50:51;5.45;;;3.45;;
18689;SDS011;9782;52.930;15.562;2023-07-31T07:53:20;8.23;;;3.40;;
18689;SDS011;9782;52.930;15.562;2023-07-31T07:55:46;6.28;;;3.33;;
18689;SDS011;9782;52.930;15.562;2023-07-31T07:58:13;5.53;;;3.20;;
18689;SDS011;9782;52.930;15.562;2023-07-31T08:00:40;5.15;;;3.40;;
18689;SDS011;9782;52.930;15.562;2023-07-31T08:03:07;5.03;;;3.08;;
18689;SDS011;9782;52.930;15.562;2023-07-31T08:05:34;5.78;;;2.90;;
18689;SDS011;9782;52.930;15.562;2023-07-31T08:08:01;4.70;;;2.80;;
18689;SDS011;9782;52.930;15.562;2023-07-31T08:10:29;5.13;;;3.00;;
18689;SDS011;9782;52.930;15.562;2023-07-31T08:12:56;4.68;;;2.60;;
18689;SDS011;9782;52.930;15.562;2023-07-31T08:15:23;4.57;;;2.92;;
18689;SDS011;9782;52.930;15.562;2023-07-31T08:17:50;6.82;;;3.42;;
18689;SDS011;9782;52.930;15.562;2023-07-31T08:20:17;3.90;;;3.13;;
18689;SDS011;9782;52.930;15.562;2023-07-31T08:22:44;5.88;;;3.95;;
18689;SDS011;9782;52.930;15.562;2023-07-31T08:25:11;6.80;;;3.38;;
18689;SDS011;9782;52.930;15.562;2023-07-31T08:27:39;5.47;;;3.53;;
18689;SDS011;9782;52.930;15.562;2023-07-31T08:30:09;4.53;;;3.17;;
18689;SDS011;9782;52.930;15.562;2023-07-31T08:32:37;5.25;;;3.40;;
18689;SDS011;9782;52.930;15.562;2023-07-31T08:35:04;6.28;;;3.65;;
18689;SDS011;9782;52.930;15.562;2023-07-31T08:37:31;3.88;;;3.10;;
18689;SDS011;9782;52.930;15.562;2023-07-31T08:39:58;5.85;;;3.00;;
18689;SDS011;9782;52.930;15.562;2023-07-31T08:42:25;6.97;;;3.08;;
18689;SDS011;9782;52.930;15.562;2023-07-31T08:44:54;6.57;;;3.05;;
18689;SDS011;9782;52.930;15.562;2023-07-31T08:47:22;4.05;;;2.90;;
18689;SDS011;9782;52.930;15.562;2023-07-31T08:49:50;4.47;;;3.38;;
18689;SDS011;9782;52.930;15.562;2023-07-31T08:52:18;4.93;;;3.08;;
18689;SDS011;9782;52.930;15.562;2023-07-31T08:54:45;5.22;;;3.20;;
18689;SDS011;9782;52.930;15.562;2023-07-31T08:57:12;4.85;;;3.00;;
18689;SDS011;9782;52.930;15.562;2023-07-31T08:59:40;5.18;;;2.58;;
18689;SDS011;9782;52.930;15.562;2023-07-31T09:02:10;4.50;;;3.10;;
18689;SDS011;9782;52.930;15.562;2023-07-31T09:04:40;3.90;;;2.95;;
18689;SDS011;9782;52.930;15.562;2023-07-31T09:07:07;4.32;;;2.75;;
18689;SDS011;9782;52.930;15.562;2023-07-31T09:09:34;3.58;;;2.78;;
18689;SDS011;9782;52.930;15.562;2023-07-31T09:12:02;3.55;;;2.88;;
18689;SDS011;9782;52.930;15.562;2023-07-31T09:14:29;4.85;;;2.67;;
18689;SDS011;9782;52.930;15.562;2023-07-31T09:16:57;4.45;;;2.83;;
18689;SDS011;9782;52.930;15.562;2023-07-31T09:19:26;9.85;;;3.08;;
18689;SDS011;9782;52.930;15.562;2023-07-31T09:21:55;5.30;;;2.92;;
18689;SDS011;9782;52.930;15.562;2023-07-31T09:24:25;7.38;;;3.17;;
18689;SDS011;9782;52.930;15.562;2023-07-31T09:26:53;9.48;;;3.30;;
18689;SDS011;9782;52.930;15.562;2023-07-31T09:29:21;4.82;;;2.70;;
18689;SDS011;9782;52.930;15.562;2023-07-31T09:31:49;3.25;;;2.70;;
18689;SDS011;9782;52.930;15.562;2023-07-31T09:34:16;4.93;;;2.90;;
18689;SDS011;9782;52.930;15.562;2023-07-31T09:36:45;5.28;;;3.13;;
18689;SDS011;9782;52.930;15.562;2023-07-31T09:39:13;5.65;;;2.72;;
18689;SDS011;9782;52.930;15.562;2023-07-31T09:41:42;5.13;;;3.25;;
18689;SDS011;9782;52.930;15.562;2023-07-31T09:44:10;5.57;;;2.63;;
18689;SDS011;9782;52.930;15.562;2023-07-31T09:46:37;4.15;;;2.80;;
18689;SDS011;9782;52.930;15.562;2023-07-31T09:49:05;6.40;;;2.78;;
18689;SDS011;9782;52.930;15.562;2023-07-31T09:51:34;5.57;;;2.75;;
18689;SDS011;9782;52.930;15.562;2023-07-31T09:54:05;4.38;;;2.47;;
18689;SDS011;9782;52.930;15.562;2023-07-31T09:56:36;4.05;;;2.70;;
18689;SDS011;9782;52.930;15.562;2023-07-31T09:59:07;5.90;;;2.92;;
18689;SDS011;9782;52.930;15.562;2023-07-31T10:01:36;4.78;;;2.75;;
18689;SDS011;9782;52.930;15.562;2023-07-31T10:04:04;7.43;;;5.30;;
18689;SDS011;9782;52.930;15.562;2023-07-31T10:06:33;5.00;;;4.50;;
18689;SDS011;9782;52.930;15.562;2023-07-31T10:09:01;4.97;;;3.20;;
18689;SDS011;9782;52.930;15.562;2023-07-31T10:11:30;3.10;;;2.63;;
18689;SDS011;9782;52.930;15.562;2023-07-31T10:14:01;6.15;;;2.92;;
18689;SDS011;9782;52.930;15.562;2023-07-31T10:16:29;4.20;;;2.58;;
18689;SDS011;9782;52.930;15.562;2023-07-31T10:18:57;4.38;;;3.10;;
18689;SDS011;9782;52.930;15.562;2023-07-31T10:21:25;3.33;;;2.67;;
18689;SDS011;9782;52.930;15.562;2023-07-31T10:23:52;3.33;;;2.45;;
18689;SDS011;9782;52.930;15.562;2023-07-31T10:26:20;3.67;;;2.30;;
18689;SDS011;9782;52.930;15.562;2023-07-31T10:28:50;4.97;;;2.30;;
18689;SDS011;9782;52.930;15.562;2023-07-31T10:31:19;3.85;;;2.70;;
18689;SDS011;9782;52.930;15.562;2023-07-31T10:33:47;4.53;;;2.47;;
18689;SDS011;9782;52.930;15.562;2023-07-31T10:36:16;3.45;;;2.47;;
18689;SDS011;9782;52.930;15.562;2023-07-31T10:38:44;4.18;;;2.70;;
18689;SDS011;9782;52.930;15.562;2023-07-31T10:41:11;4.47;;;2.40;;
18689;SDS011;9782;52.930;15.562;2023-07-31T10:43:38;2.85;;;2.50;;
18689;SDS011;9782;52.930;15.562;2023-07-31T10:46:07;3.60;;;2.50;;
18689;SDS011;9782;52.930;15.562;2023-07-31T10:48:35;5.22;;;3.35;;
18689;SDS011;9782;52.930;15.562;2023-07-31T10:51:06;4.07;;;2.75;;
18689;SDS011;9782;52.930;15.562;2023-07-31T10:53:35;4.40;;;3.00;;
18689;SDS011;9782;52.930;15.562;2023-07-31T10:56:02;3.70;;;2.60;;
18689;SDS011;9782;52.930;15.562;2023-07-31T10:58:30;4.32;;;3.00;;
18689;SDS011;9782;52.930;15.562;2023-07-31T11:00:58;6.65;;;3.25;;
18689;SDS011;9782;52.930;15.562;2023-07-31T11:03:40;4.53;;;2.63;;
18689;SDS011;9782;52.930;15.562;2023-07-31T11:06:08;3.50;;;2.90;;
18689;SDS011;9782;52.930;15.562;2023-07-31T11:08:35;10.82;;;2.78;;
18689;SDS011;9782;52.930;15.562;2023-07-31T11:11:08;4.03;;;2.35;;
18689;SDS011;9782;52.930;15.562;2023-07-31T11:13:41;4.43;;;2.63;;
18689;SDS011;9782;52.930;15.562;2023-07-31T11:16:09;4.30;;;2.40;;
18689;SDS011;9782;52.930;15.562;2023-07-31T11:18:39;3.85;;;2.63;;
18689;SDS011;9782;52.930;15.562;2023-07-31T11:21:07;11.75;;;3.10;;
18689;SDS011;9782;52.930;15.562;2023-07-31T11:23:36;5.55;;;3.35;;
18689;SDS011;9782;52.930;15.562;2023-07-31T11:26:04;3.13;;;2.38;;
18689;SDS011;9782;52.930;15.562;2023-07-31T11:28:32;4.95;;;2.40;;
18689;SDS011;9782;52.930;15.562;2023-07-31T11:30:59;5.00;;;2.28;;
18689;SDS011;9782;52.930;15.562;2023-07-31T11:33:27;3.58;;;2.40;;
18689;SDS011;9782;52.930;15.562;2023-07-31T11:35:55;5.13;;;1.95;;
18689;SDS011;9782;52.930;15.562;2023-07-31T11:38:22;3.10;;;2.50;;
18689;SDS011;9782;52.930;15.562;2023-07-31T11:40:51;7.18;;;2.40;;
18689;SDS011;9782;52.930;15.562;2023-07-31T11:43:18;4.30;;;2.30;;
18689;SDS011;9782;52.930;15.562;2023-07-31T11:45:46;2.63;;;2.35;;
18689;SDS011;9782;52.930;15.562;2023-07-31T11:48:21;5.53;;;2.72;;
18689;SDS011;9782;52.930;15.562;2023-07-31T11:50:49;6.75;;;2.65;;
18689;SDS011;9782;52.930;15.562;2023-07-31T11:53:18;4.32;;;2.30;;
18689;SDS011;9782;52.930;15.562;2023-07-31T11:55:48;2.92;;;2.45;;
18689;SDS011;9782;52.930;15.562;2023-07-31T11:58:16;3.95;;;2.70;;
18689;SDS011;9782;52.930;15.562;2023-07-31T12:00:44;4.50;;;2.40;;
18689;SDS011;9782;52.930;15.562;2023-07-31T12:03:11;2.83;;;2.17;;
18689;SDS011;9782;52.930;15.562;2023-07-31T12:05:38;4.18;;;2.08;;
18689;SDS011;9782;52.930;15.562;2023-07-31T12:08:08;2.97;;;2.10;;
18689;SDS011;9782;52.930;15.562;2023-07-31T12:10:38;5.20;;;2.47;;
18689;SDS011;9782;52.930;15.562;2023-07-31T12:13:07;2.17;;;1.98;;
18689;SDS011;9782;52.930;15.562;2023-07-31T12:15:39;3.28;;;2.20;;
18689;SDS011;9782;52.930;15.562;2023-07-31T12:18:08;2.70;;;1.90;;
18689;SDS011;9782;52.930;15.562;2023-07-31T12:20:39;3.17;;;1.70;;
18689;SDS011;9782;52.930;15.562;2023-07-31T12:23:14;5.03;;;1.60;;
18689;SDS011;9782;52.930;15.562;2023-07-31T12:25:43;2.08;;;1.73;;
18689;SDS011;9782;52.930;15.562;2023-07-31T12:28:10;2.53;;;1.75;;
18689;SDS011;9782;52.930;15.562;2023-07-31T12:30:38;4.07;;;1.70;;
18689;SDS011;9782;52.930;15.562;2023-07-31T12:33:06;2.30;;;1.40;;
18689;SDS011;9782;52.930;15.562;2023-07-31T12:35:38;1.55;;;1.35;;
18689;SDS011;9782;52.930;15.562;2023-07-31T12:38:08;2.30;;;1.77;;
18689;SDS011;9782;52.930;15.562;2023-07-31T12:40:36;5.70;;;1.65;;
18689;SDS011;9782;52.930;15.562;2023-07-31T12:43:05;1.83;;;1.52;;
18689;SDS011;9782;52.930;15.562;2023-07-31T12:45:32;1.95;;;1.73;;
18689;SDS011;9782;52.930;15.562;2023-07-31T12:47:59;1.77;;;1.40;;
18689;SDS011;9782;52.930;15.562;2023-07-31T12:50:26;1.80;;;1.30;;
18689;SDS011;9782;52.930;15.562;2023-07-31T12:52:53;3.85;;;2.97;;
18689;SDS011;9782;52.930;15.562;2023-07-31T12:55:21;10.60;;;9.57;;
18689;SDS011;9782;52.930;15.562;2023-07-31T12:57:48;3.70;;;3.40;;
18689;SDS011;9782;52.930;15.562;2023-07-31T13:00:16;3.05;;;2.78;;
18689;SDS011;9782;52.930;15.562;2023-07-31T13:02:43;3.53;;;1.88;;
18689;SDS011;9782;52.930;15.562;2023-07-31T13:05:10;3.28;;;1.90;;
18689;SDS011;9782;52.930;15.562;2023-07-31T13:07:38;2.50;;;2.20;;
18689;SDS011;9782;52.930;15.562;2023-07-31T13:10:06;3.17;;;2.15;;
18689;SDS011;9782;52.930;15.562;2023-07-31T13:12:34;9.70;;;3.00;;
18689;SDS011;9782;52.930;15.562;2023-07-31T13:15:01;2.63;;;1.70;;
18689;SDS011;9782;52.930;15.562;2023-07-31T13:17:29;3.28;;;2.80;;
18689;SDS011;9782;52.930;15.562;2023-07-31T13:19:56;4.53;;;2.00;;
18689;SDS011;9782;52.930;15.562;2023-07-31T13:22:23;4.80;;;1.95;;
18689;SDS011;9782;52.930;15.562;2023-07-31T13:24:49;3.38;;;2.25;;
18689;SDS011;9782;52.930;15.562;2023-07-31T13:27:16;3.90;;;1.92;;
18689;SDS011;9782;52.930;15.562;2023-07-31T13:29:45;3.83;;;1.85;;
18689;SDS011;9782;52.930;15.562;2023-07-31T13:32:12;5.70;;;2.13;;
18689;SDS011;9782;52.930;15.562;2023-07-31T13:34:40;3.58;;;1.70;;
18689;SDS011;9782;52.930;15.562;2023-07-31T13:37:07;2.05;;;1.80;;
18689;SDS011;9782;52.930;15.562;2023-07-31T13:39:34;3.20;;;2.10;;
18689;SDS011;9782;52.930;15.562;2023-07-31T13:42:01;3.20;;;2.17;;
18689;SDS011;9782;52.930;15.562;2023-07-31T13:44:31;2.97;;;2.42;;
18689;SDS011;9782;52.930;15.562;2023-07-31T13:46:58;4.82;;;2.33;;
18689;SDS011;9782;52.930;15.562;2023-07-31T13:49:25;5.13;;;2.60;;
18689;SDS011;9782;52.930;15.562;2023-07-31T13:51:54;4.28;;;2.22;;
18689;SDS011;9782;52.930;15.562;2023-07-31T13:54:21;2.45;;;1.85;;
18689;SDS011;9782;52.930;15.562;2023-07-31T13:56:49;5.38;;;2.17;;
18689;SDS011;9782;52.930;15.562;2023-07-31T13:59:16;4.72;;;2.20;;
18689;SDS011;9782;52.930;15.562;2023-07-31T14:01:43;3.80;;;2.42;;
18689;SDS011;9782;52.930;15.562;2023-07-31T14:04:10;3.72;;;2.65;;
18689;SDS011;9782;52.930;15.562;2023-07-31T14:06:37;4.28;;;2.50;;
18689;SDS011;9782;52.930;15.562;2023-07-31T14:09:06;7.32;;;2.90;;
18689;SDS011;9782;52.930;15.562;2023-07-31T14:11:32;7.50;;;2.53;;
18689;SDS011;9782;52.930;15.562;2023-07-31T14:14:00;5.82;;;2.42;;
18689;SDS011;9782;52.930;15.562;2023-07-31T14:16:28;5.50;;;2.55;;
18689;SDS011;9782;52.930;15.562;2023-07-31T14:18:54;3.85;;;2.45;;
18689;SDS011;9782;52.930;15.562;2023-07-31T14:21:24;9.35;;;2.80;;
18689;SDS011;9782;52.930;15.562;2023-07-31T14:23:51;5.57;;;2.60;;
18689;SDS011;9782;52.930;15.562;2023-07-31T14:26:19;4.00;;;2.40;;
18689;SDS011;9782;52.930;15.562;2023-07-31T14:28:46;3.58;;;2.60;;
18689;SDS011;9782;52.930;15.562;2023-07-31T14:31:13;3.53;;;2.45;;
18689;SDS011;9782;52.930;15.562;2023-07-31T14:33:39;4.28;;;2.80;;
18689;SDS011;9782;52.930;15.562;2023-07-31T14:36:06;3.45;;;2.58;;
18689;SDS011;9782;52.930;15.562;2023-07-31T14:38:33;6.43;;;2.42;;
18689;SDS011;9782;52.930;15.562;2023-07-31T14:41:00;3.15;;;2.30;;
18689;SDS011;9782;52.930;15.562;2023-07-31T14:43:28;7.95;;;3.03;;
18689;SDS011;9782;52.930;15.562;2023-07-31T14:45:55;3.20;;;2.40;;
18689;SDS011;9782;52.930;15.562;2023-07-31T14:48:24;3.33;;;2.33;;
18689;SDS011;9782;52.930;15.562;2023-07-31T14:50:51;6.38;;;2.80;;
18689;SDS011;9782;52.930;15.562;2023-07-31T14:53:18;6.10;;;2.47;;
18689;SDS011;9782;52.930;15.562;2023-07-31T14:55:44;4.47;;;2.53;;
18689;SDS011;9782;52.930;15.562;2023-07-31T14:58:11;4.53;;;2.53;;
18689;SDS011;9782;52.930;15.562;2023-07-31T15:00:41;5.55;;;2.55;;
18689;SDS011;9782;52.930;15.562;2023-07-31T15:03:07;5.10;;;2.47;;
18689;SDS011;9782;52.930;15.562;2023-07-31T15:05:34;6.03;;;2.80;;
18689;SDS011;9782;52.930;15.562;2023-07-31T15:08:01;9.05;;;2.90;;
18689;SDS011;9782;52.930;15.562;2023-07-31T15:10:28;3.13;;;2.50;;
18689;SDS011;9782;52.930;15.562;2023-07-31T15:12:55;5.05;;;3.08;;
18689;SDS011;9782;52.930;15.562;2023-07-31T15:15:22;4.93;;;3.20;;
18689;SDS011;9782;52.930;15.562;2023-07-31T15:17:50;6.80;;;2.60;;
18689;SDS011;9782;52.930;15.562;2023-07-31T15:20:17;9.63;;;2.70;;
18689;SDS011;9782;52.930;15.562;2023-07-31T15:22:43;6.45;;;2.70;;
18689;SDS011;9782;52.930;15.562;2023-07-31T15:25:10;5.07;;;2.63;;
18689;SDS011;9782;52.930;15.562;2023-07-31T15:27:37;5.50;;;2.40;;
18689;SDS011;9782;52.930;15.562;2023-07-31T15:30:05;4.05;;;2.40;;
18689;SDS011;9782;52.930;15.562;2023-07-31T15:32:32;4.82;;;2.35;;
18689;SDS011;9782;52.930;15.562;2023-07-31T15:35:00;4.20;;;2.90;;
18689;SDS011;9782;52.930;15.562;2023-07-31T15:37:27;7.38;;;2.95;;
18689;SDS011;9782;52.930;15.562;2023-07-31T15:39:54;8.68;;;3.10;;
18689;SDS011;9782;52.930;15.562;2023-07-31T15:42:21;4.45;;;2.20;;
18689;SDS011;9782;52.930;15.562;2023-07-31T15:44:48;5.05;;;2.10;;
18689;SDS011;9782;52.930;15.562;2023-07-31T15:47:14;5.93;;;2.28;;
18689;SDS011;9782;52.930;15.562;2023-07-31T15:49:41;4.40;;;2.28;;
18689;SDS011;9782;52.930;15.562;2023-07-31T15:52:09;3.10;;;2.20;;
18689;SDS011;9782;52.930;15.562;2023-07-31T15:54:36;4.25;;;2.17;;
18689;SDS011;9782;52.930;15.562;2023-07-31T15:57:03;4.25;;;2.55;;
18689;SDS011;9782;52.930;15.562;2023-07-31T15:59:30;3.65;;;2.58;;
18689;SDS011;9782;52.930;15.562;2023-07-31T16:01:57;3.60;;;2.42;;
18689;SDS011;9782;52.930;15.562;2023-07-31T16:04:24;4.75;;;2.45;;
18689;SDS011;9782;52.930;15.562;2023-07-31T16:06:51;3.30;;;2.53;;
18689;SDS011;9782;52.930;15.562;2023-07-31T16:09:19;2.45;;;2.00;;
18689;SDS011;9782;52.930;15.562;2023-07-31T16:11:46;7.03;;;2.70;;
18689;SDS011;9782;52.930;15.562;2023-07-31T16:14:14;5.40;;;3.47;;
18689;SDS011;9782;52.930;15.562;2023-07-31T16:16:41;3.92;;;3.00;;
18689;SDS011;9782;52.930;15.562;2023-07-31T16:19:07;6.30;;;3.13;;
18689;SDS011;9782;52.930;15.562;2023-07-31T16:21:35;3.40;;;2.50;;
18689;SDS011;9782;52.930;15.562;2023-07-31T16:24:02;3.38;;;2.20;;
18689;SDS011;9782;52.930;15.562;2023-07-31T16:26:30;6.25;;;2.60;;
18689;SDS011;9782;52.930;15.562;2023-07-31T16:28:58;4.60;;;2.40;;
18689;SDS011;9782;52.930;15.562;2023-07-31T16:31:25;4.35;;;2.40;;